Simcha — PE7688 — position and weather

sailwx.info

Track history (hours):
 
Tides and Currents Weather Stations Pressure Air Temp Water Temp Dewpoint Dewpoint Depression Visibility Wind Speed Wind Dir Waves Ship Positions

Simcha

Last reported at 2015-Jul-25 07:20 UTC. Time now 2015-Aug-01 01:29 UTC.
Position N 51°09' E 006°48'.

Length 110 m.

Type: Ship. MMSI: 244780014.

Date/timePositionNaut miles runAvg speedWind from/ knotsBaromVisibWave heightAir tempDewpointWater temp
2015-Jul-25 07:20N 51°09' E 006°48'3 3.6
2015-Jul-25 06:33N 51°11' E 006°47'3 3.1
2015-Jul-25 05:33N 51°13' E 006°43'59 1.3
2015-Jul-23 07:33N 52°10' E 006°18'10 4.9
2015-Jul-23 05:33N 52°13' E 006°33'2 1.6
2015-Jul-23 04:33N 52°14' E 006°36'0 0.0
2015-Jul-23 03:33N 52°14' E 006°36'0 0.0
2015-Jul-23 02:33N 52°14' E 006°36'0 0.0
2015-Jul-23 01:33N 52°14' E 006°36'0 0.0
2015-Jul-23 00:33N 52°14' E 006°36'0 0.0
2015-Jul-22 23:33N 52°14' E 006°36'0 0.0
2015-Jul-22 22:33N 52°14' E 006°36'0 0.0
2015-Jul-22 21:33N 52°14' E 006°36'0 0.0
2015-Jul-22 20:33N 52°14' E 006°36'0 0.0
2015-Jul-22 19:33N 52°14' E 006°36'0 0.0
2015-Jul-22 18:33N 52°14' E 006°36'5 2.6
2015-Jul-22 16:33N 52°15' E 006°44'2 1.8
2015-Jul-22 15:32N 52°15' E 006°47'0 0.0
2015-Jul-22 14:32N 52°15' E 006°47'0 0.0
2015-Jul-22 13:33N 52°15' E 006°47'0 0.0
2015-Jul-22 12:33N 52°15' E 006°47'0 0.0
2015-Jul-22 11:33N 52°15' E 006°47'0 0.0
2015-Jul-22 10:34N 52°15' E 006°47'0 0.0
2015-Jul-22 09:32N 52°15' E 006°47'0 0.0
2015-Jul-22 08:32N 52°15' E 006°47'0 0.0
2015-Jul-22 07:33N 52°15' E 006°47'0 0.0
2015-Jul-22 06:33N 52°15' E 006°47'0 0.2
2015-Jul-22 05:33N 52°15' E 006°47'1 0.5
2015-Jul-22 04:32N 52°15' E 006°48'0 0.0
2015-Jul-22 03:33N 52°15' E 006°48'0 0.0
2015-Jul-22 02:33N 52°15' E 006°48'0 0.0
2015-Jul-22 01:33N 52°15' E 006°48'0 0.0
2015-Jul-22 00:33N 52°15' E 006°48'0 0.0
2015-Jul-21 23:33N 52°15' E 006°48'0 0.0
2015-Jul-21 22:33N 52°15' E 006°48'0 0.0
2015-Jul-21 21:33N 52°15' E 006°48'0 0.0
2015-Jul-21 20:33N 52°15' E 006°48'2 2.5
2015-Jul-21 19:33N 52°15' E 006°44'4 2.7
2015-Jul-21 18:14N 52°14' E 006°38'11 6.4
2015-Jul-21 16:33N 52°10' E 006°22'57 4.8
2015-Jul-21 04:31N 51°15' E 006°46'5 5.2
2015-Jul-21 03:33N 51°10' E 006°48'1 0.0
2015-Jul-20 08:31N 51°10' E 006°48'3 2.7
2015-Jul-20 07:34N 51°11' E 006°44'0 0.0
2015-Jul-20 06:34N 51°11' E 006°44'0 0.0
2015-Jul-20 05:34N 51°11' E 006°44'0 0.0
2015-Jul-20 04:34N 51°11' E 006°44'0 0.0
2015-Jul-20 03:34N 51°11' E 006°44'0 0.0
2015-Jul-20 02:34N 51°11' E 006°44'0 0.0
2015-Jul-20 01:34N 51°11' E 006°44'0 0.0
2015-Jul-20 00:33N 51°11' E 006°44'0 0.0
2015-Jul-19 23:33N 51°11' E 006°44'0 0.0
2015-Jul-19 22:33N 51°11' E 006°44'0 0.0
2015-Jul-19 21:33N 51°11' E 006°44'0 0.0
2015-Jul-19 20:33N 51°11' E 006°44'0 0.0
2015-Jul-19 19:33N 51°11' E 006°44'0 0.0
2015-Jul-19 18:33N 51°11' E 006°44'2 2.4
2015-Jul-19 17:33N 51°13' E 006°45'9 3.1
2015-Jul-19 14:33N 51°22' E 006°40'50 1.5
2015-Jul-18 06:12N 52°10' E 006°16'4 5.4
2015-Jul-18 05:32N 52°10' E 006°22'7 5.0
2015-Jul-18 04:08N 52°13' E 006°32'2 3.7
2015-Jul-18 03:33N 52°14' E 006°36'0 0.0
2015-Jul-18 02:33N 52°14' E 006°36'0 0.0
2015-Jul-18 01:33N 52°14' E 006°36'0 0.0
2015-Jul-18 00:33N 52°14' E 006°36'0 0.0
2015-Jul-17 23:33N 52°14' E 006°36'0 0.0
2015-Jul-17 22:33N 52°14' E 006°36'0 0.0
2015-Jul-17 21:33N 52°14' E 006°36'0 0.0
2015-Jul-17 20:33N 52°14' E 006°36'0 0.0
2015-Jul-17 19:33N 52°14' E 006°36'0 0.0
2015-Jul-17 18:33N 52°14' E 006°36'5 1.7
2015-Jul-17 15:33N 52°15' E 006°44'3 2.5
2015-Jul-17 14:32N 52°15' E 006°48'0 0.0
2015-Jul-17 13:32N 52°15' E 006°48'0 0.0
2015-Jul-17 12:33N 52°15' E 006°48'0 0.0
2015-Jul-17 11:33N 52°15' E 006°48'2 2.2
2015-Jul-17 10:33N 52°15' E 006°44'4 4.0
2015-Jul-17 09:30N 52°14' E 006°38'8 6.4
2015-Jul-17 08:12N 52°10' E 006°26'4 6.4
2015-Jul-17 07:32N 52°10' E 006°19'1 0.0
2015-Jul-15 07:33N 52°10' E 006°20'  
Track history (hours):
 
Tides and Currents Weather Stations Pressure Air Temp Water Temp Dewpoint Dewpoint Depression Visibility Wind Speed Wind Dir Waves Ship Positions

Simcha

Last reported at 2015-Jul-25 07:20 UTC. Time now 2015-Aug-01 01:29 UTC.
Position N 51°09' E 006°48'.

Length 110 m.

Type: Ship. MMSI: 244780014.

Date/timePositionNaut miles runAvg speedWind from/ knotsBaromVisibWave heightAir tempDewpointWater temp
2015-Jul-25 07:20N 51°09' E 006°48'3 3.6
2015-Jul-25 06:33N 51°11' E 006°47'3 3.1
2015-Jul-25 05:33N 51°13' E 006°43'59 1.3
2015-Jul-23 07:33N 52°10' E 006°18'10 4.9
2015-Jul-23 05:33N 52°13' E 006°33'2 1.6
2015-Jul-23 04:33N 52°14' E 006°36'0 0.0
2015-Jul-23 03:33N 52°14' E 006°36'0 0.0
2015-Jul-23 02:33N 52°14' E 006°36'0 0.0
2015-Jul-23 01:33N 52°14' E 006°36'0 0.0
2015-Jul-23 00:33N 52°14' E 006°36'0 0.0
2015-Jul-22 23:33N 52°14' E 006°36'0 0.0
2015-Jul-22 22:33N 52°14' E 006°36'0 0.0
2015-Jul-22 21:33N 52°14' E 006°36'0 0.0
2015-Jul-22 20:33N 52°14' E 006°36'0 0.0
2015-Jul-22 19:33N 52°14' E 006°36'0 0.0
2015-Jul-22 18:33N 52°14' E 006°36'5 2.6
2015-Jul-22 16:33N 52°15' E 006°44'2 1.8
2015-Jul-22 15:32N 52°15' E 006°47'0 0.0
2015-Jul-22 14:32N 52°15' E 006°47'0 0.0
2015-Jul-22 13:33N 52°15' E 006°47'0 0.0
2015-Jul-22 12:33N 52°15' E 006°47'0 0.0
2015-Jul-22 11:33N 52°15' E 006°47'0 0.0
2015-Jul-22 10:34N 52°15' E 006°47'0 0.0
2015-Jul-22 09:32N 52°15' E 006°47'0 0.0
2015-Jul-22 08:32N 52°15' E 006°47'0 0.0
2015-Jul-22 07:33N 52°15' E 006°47'0 0.0
2015-Jul-22 06:33N 52°15' E 006°47'0 0.2
2015-Jul-22 05:33N 52°15' E 006°47'1 0.5
2015-Jul-22 04:32N 52°15' E 006°48'0 0.0
2015-Jul-22 03:33N 52°15' E 006°48'0 0.0
2015-Jul-22 02:33N 52°15' E 006°48'0 0.0
2015-Jul-22 01:33N 52°15' E 006°48'0 0.0
2015-Jul-22 00:33N 52°15' E 006°48'0 0.0
2015-Jul-21 23:33N 52°15' E 006°48'0 0.0
2015-Jul-21 22:33N 52°15' E 006°48'0 0.0
2015-Jul-21 21:33N 52°15' E 006°48'0 0.0
2015-Jul-21 20:33N 52°15' E 006°48'2 2.5
2015-Jul-21 19:33N 52°15' E 006°44'4 2.7
2015-Jul-21 18:14N 52°14' E 006°38'11 6.4
2015-Jul-21 16:33N 52°10' E 006°22'57 4.8
2015-Jul-21 04:31N 51°15' E 006°46'5 5.2
2015-Jul-21 03:33N 51°10' E 006°48'1 0.0
2015-Jul-20 08:31N 51°10' E 006°48'3 2.7
2015-Jul-20 07:34N 51°11' E 006°44'0 0.0
2015-Jul-20 06:34N 51°11' E 006°44'0 0.0
2015-Jul-20 05:34N 51°11' E 006°44'0 0.0
2015-Jul-20 04:34N 51°11' E 006°44'0 0.0
2015-Jul-20 03:34N 51°11' E 006°44'0 0.0
2015-Jul-20 02:34N 51°11' E 006°44'0 0.0
2015-Jul-20 01:34N 51°11' E 006°44'0 0.0
2015-Jul-20 00:33N 51°11' E 006°44'0 0.0
2015-Jul-19 23:33N 51°11' E 006°44'0 0.0
2015-Jul-19 22:33N 51°11' E 006°44'0 0.0
2015-Jul-19 21:33N 51°11' E 006°44'0 0.0
2015-Jul-19 20:33N 51°11' E 006°44'0 0.0
2015-Jul-19 19:33N 51°11' E 006°44'0 0.0
2015-Jul-19 18:33N 51°11' E 006°44'2 2.4
2015-Jul-19 17:33N 51°13' E 006°45'9 3.1
2015-Jul-19 14:33N 51°22' E 006°40'50 1.5
2015-Jul-18 06:12N 52°10' E 006°16'4 5.4
2015-Jul-18 05:32N 52°10' E 006°22'7 5.0
2015-Jul-18 04:08N 52°13' E 006°32'2 3.7
2015-Jul-18 03:33N 52°14' E 006°36'0 0.0
2015-Jul-18 02:33N 52°14' E 006°36'0 0.0
2015-Jul-18 01:33N 52°14' E 006°36'0 0.0
2015-Jul-18 00:33N 52°14' E 006°36'0 0.0
2015-Jul-17 23:33N 52°14' E 006°36'0 0.0
2015-Jul-17 22:33N 52°14' E 006°36'0 0.0
2015-Jul-17 21:33N 52°14' E 006°36'0 0.0
2015-Jul-17 20:33N 52°14' E 006°36'0 0.0
2015-Jul-17 19:33N 52°14' E 006°36'0 0.0
2015-Jul-17 18:33N 52°14' E 006°36'5 1.7
2015-Jul-17 15:33N 52°15' E 006°44'3 2.5
2015-Jul-17 14:32N 52°15' E 006°48'0 0.0
2015-Jul-17 13:32N 52°15' E 006°48'0 0.0
2015-Jul-17 12:33N 52°15' E 006°48'0 0.0
2015-Jul-17 11:33N 52°15' E 006°48'2 2.2
2015-Jul-17 10:33N 52°15' E 006°44'4 4.0
2015-Jul-17 09:30N 52°14' E 006°38'8 6.4
2015-Jul-17 08:12N 52°10' E 006°26'4 6.4
2015-Jul-17 07:32N 52°10' E 006°19'1 0.0
2015-Jul-15 07:33N 52°10' E 006°20'  

Dump ship's entire track history